AirNav   ProFlight Series 2 Aviation Headset
 
 1053 users online  

TN74 Will A Hildreth Farm Airport
Lenoir City, Tennessee, USA

GOING TO LENOIR CITY?


FAA INFORMATION EFFECTIVE 16 JULY 2020

Location

FAA Identifier: TN74
Lat/Long: 35-48-00.2760N 084-19-09.7200W
35-48.004600N 084-19.162000W
35.8000767,-84.3193667
(estimated)
Elevation: 900 ft. / 274 m (estimated)
Variation: 03W (1985)
From city: 3 miles W of LENOIR CITY, TN
Time zone: UTC -4 (UTC -5 during Standard Time)
Zip code: 37771

Airport Operations

Airport use: Private use. Permission required prior to landing
Activation date: 01/1981
Control tower: no
ARTCC: ATLANTA CENTER
FSS: NASHVILLE FLIGHT SERVICE STATION
Attendance: UNATNDD
Wind indicator: yes
Segmented circle: no

Airport Communications

WX AWOS-3 at MNV (16 nm S): 118.475 (423-442-6170)
WX ASOS at TYS (16 nm E): PHONE 865-981-4053
WX AWOS-3 at RKW (19 nm W): 118.775 (865-354-9262)

Nearby radio navigation aids

VOR radial/distance  VOR name  Freq  Var
VXVr256/21.6VOLUNTEER VORTAC116.4003W
HCHr090/32.1HINCH MOUNTAIN VOR/DME117.6002W

 
NDB name  Hdg/Dist  Freq  Var  ID
MC MINN COUNTY029/27.024203WMMI -- -- ..
MARK ANTON061/35.439404WDTE -.. - .

Airport Services

Runway Information

Runway 5/23

Dimensions: 2100 x 75 ft. / 640 x 23 m
Surface: turf
RUNWAY 5  RUNWAY 23
Traffic pattern: leftleft

Airport Ownership and Management from official FAA records

Ownership: Privately-owned
Owner: WILL A. HILDRETH
12612 PONY EXPRESS DRIVE
KNOXVILLE, TN 37934
Phone 865-679-0269

Airport Operational Statistics

Aircraft based on the field: 4
Single engine airplanes: 4
    

Additional Remarks

FOR CD CTC ATLANTA ARTCC AT 770-210-7692.

Instrument Procedures

There are no published instrument procedures at TN74.

Some nearby airports with instrument procedures:

KMNV - Monroe County Airport (16 nm S)
KTYS - Mc Ghee Tyson Airport (16 nm E)
KRKW - Rockwood Municipal Airport (19 nm W)
KDKX - Knoxville Downtown Island Airport (24 nm NE)
KMMI - McMinn County Airport (27 nm SW)
 
Loc | Ops | Rwys | IFR | FBO | Links
Com | Nav | Svcs | Stats | Notes
Area around TN74 (Will A Hildreth Farm Airport)
 
Road maps at: MapQuest Bing Google
 
Aerial photo
No photo
 
Sectional chart

 
Airport distance calculator
Flying to Will A Hildreth Farm Airport? Find the distance to fly.

From to TN74

Sunrise and sunset
Times for 09-Aug-2020
 Local
(UTC-4)
 Zulu
(UTC)
Morning civil twilight06:2610:26
Sunrise06:5310:53
Sunset20:3200:32
Evening civil twilight21:0001:00

Current date and time
Zulu (UTC)  09-Aug-2020 14:28:04
Local (UTC-4)  09-Aug-2020 10:28:04
 
METAR
KOQT 
14nm N 
091353Z AUTO 00000KT 10SM CLR 24/19 A3021 RMK AO2 SLP214 T02440189
KMNV 
16nm S 
091415Z AUTO 00000KT 10SM CLR 27/22 A3019 RMK A01
KTYS 
16nm E 
091353Z 00000KT 10SM CLR 24/19 A3019 RMK AO2 SLP211 T02440194
KRKW 
19nm W 
091415Z AUTO 00000KT 10SM CLR 26/17 A3022 RMK A01
KDKX 
24nm NE 
091410Z AUTO 00000KT 10SM CLR 25/20 A3020 RMK A01
KMMI 
27nm SW 
091415Z AUTO 00000KT 10SM CLR 27/22 A3020 RMK A01
TAF
KTYS 
16nm E 
091120Z 0912/1012 VRB03KT P6SM SKC FM091700 28005KT P6SM FEW050 SCT250
NOTAMs
Click for the latest NOTAMs
NOTAMs are issued by the DoD/FAA and will open in a separate window not controlled by AirNav.

 

 
 

Would you like to see your business listed on this page?

 If your business provides an interesting product or service to pilots, flight crews, aircraft, or users of the Will A Hildreth Farm Airport, you should consider listing it here.  To start the listing process, click on the button below
 
Add a business
 

Other Pages about Will A Hildreth Farm Airport

Update a link
 
Copyright © AirNav, LLC. All rights reserved. Privacy Policy  Contact